sensor_id;sensor_type;location;lat;lon;timestamp;P1;durP1;ratioP1;P2;durP2;ratioP2
23642;SDS011;11998;55.788;37.572;2023-04-06T00:00:21;11.73;;;9.93;;
23642;SDS011;11998;55.788;37.572;2023-04-06T00:01:22;11.52;;;9.00;;
23642;SDS011;11998;55.788;37.572;2023-04-06T00:02:23;11.37;;;9.17;;
23642;SDS011;11998;55.788;37.572;2023-04-06T00:03:23;14.90;;;9.33;;
23642;SDS011;11998;55.788;37.572;2023-04-06T00:04:23;12.30;;;9.30;;
23642;SDS011;11998;55.788;37.572;2023-04-06T00:05:24;10.50;;;9.27;;
23642;SDS011;11998;55.788;37.572;2023-04-06T00:06:24;11.03;;;8.87;;
23642;SDS011;11998;55.788;37.572;2023-04-06T00:07:25;13.87;;;9.10;;
23642;SDS011;11998;55.788;37.572;2023-04-06T00:08:26;10.60;;;9.30;;
23642;SDS011;11998;55.788;37.572;2023-04-06T00:09:26;11.20;;;9.03;;
23642;SDS011;11998;55.788;37.572;2023-04-06T00:10:27;10.80;;;8.33;;
23642;SDS011;11998;55.788;37.572;2023-04-06T00:11:27;10.47;;;9.30;;
23642;SDS011;11998;55.788;37.572;2023-04-06T00:12:28;14.27;;;9.97;;
23642;SDS011;11998;55.788;37.572;2023-04-06T00:13:28;13.07;;;9.73;;
23642;SDS011;11998;55.788;37.572;2023-04-06T00:14:29;14.53;;;9.50;;
23642;SDS011;11998;55.788;37.572;2023-04-06T00:15:29;15.93;;;10.37;;
23642;SDS011;11998;55.788;37.572;2023-04-06T00:16:30;11.87;;;9.40;;
23642;SDS011;11998;55.788;37.572;2023-04-06T00:17:30;12.43;;;9.93;;
23642;SDS011;11998;55.788;37.572;2023-04-06T00:18:31;12.57;;;9.80;;
23642;SDS011;11998;55.788;37.572;2023-04-06T00:19:31;16.53;;;10.00;;
23642;SDS011;11998;55.788;37.572;2023-04-06T00:20:32;11.27;;;9.43;;
23642;SDS011;11998;55.788;37.572;2023-04-06T00:21:32;10.57;;;9.03;;
23642;SDS011;11998;55.788;37.572;2023-04-06T00:22:33;12.43;;;10.03;;
23642;SDS011;11998;55.788;37.572;2023-04-06T00:23:33;12.97;;;9.53;;
23642;SDS011;11998;55.788;37.572;2023-04-06T00:24:34;11.20;;;9.77;;
23642;SDS011;11998;55.788;37.572;2023-04-06T00:25:35;12.73;;;10.17;;
23642;SDS011;11998;55.788;37.572;2023-04-06T00:26:35;12.43;;;9.60;;
23642;SDS011;11998;55.788;37.572;2023-04-06T00:27:38;13.97;;;10.63;;
23642;SDS011;11998;55.788;37.572;2023-04-06T00:28:38;15.82;;;10.93;;
23642;SDS011;11998;55.788;37.572;2023-04-06T00:29:39;14.37;;;10.53;;
23642;SDS011;11998;55.788;37.572;2023-04-06T00:30:40;12.27;;;10.70;;
23642;SDS011;11998;55.788;37.572;2023-04-06T00:31:40;11.67;;;10.47;;
23642;SDS011;11998;55.788;37.572;2023-04-06T00:32:41;13.73;;;10.90;;
23642;SDS011;11998;55.788;37.572;2023-04-06T00:33:41;11.50;;;10.30;;
23642;SDS011;11998;55.788;37.572;2023-04-06T00:34:42;13.90;;;10.77;;
23642;SDS011;11998;55.788;37.572;2023-04-06T00:35:42;13.67;;;10.53;;
23642;SDS011;11998;55.788;37.572;2023-04-06T00:36:42;14.63;;;9.80;;
23642;SDS011;11998;55.788;37.572;2023-04-06T00:37:45;13.57;;;10.80;;
23642;SDS011;11998;55.788;37.572;2023-04-06T00:38:46;14.68;;;10.82;;
23642;SDS011;11998;55.788;37.572;2023-04-06T00:39:46;14.17;;;11.13;;
23642;SDS011;11998;55.788;37.572;2023-04-06T00:40:47;14.23;;;10.20;;
23642;SDS011;11998;55.788;37.572;2023-04-06T00:41:49;14.73;;;10.80;;
23642;SDS011;11998;55.788;37.572;2023-04-06T00:42:50;12.77;;;11.18;;
23642;SDS011;11998;55.788;37.572;2023-04-06T00:43:51;13.43;;;11.57;;
23642;SDS011;11998;55.788;37.572;2023-04-06T00:44:55;12.93;;;9.17;;
23642;SDS011;11998;55.788;37.572;2023-04-06T00:45:56;11.70;;;9.80;;
23642;SDS011;11998;55.788;37.572;2023-04-06T00:46:56;13.80;;;10.47;;
23642;SDS011;11998;55.788;37.572;2023-04-06T00:47:57;11.87;;;10.20;;
23642;SDS011;11998;55.788;37.572;2023-04-06T00:48:57;13.00;;;11.03;;
23642;SDS011;11998;55.788;37.572;2023-04-06T00:49:57;13.30;;;9.90;;
23642;SDS011;11998;55.788;37.572;2023-04-06T00:50:58;13.10;;;10.83;;
23642;SDS011;11998;55.788;37.572;2023-04-06T00:51:59;12.30;;;10.83;;
23642;SDS011;11998;55.788;37.572;2023-04-06T00:53:00;13.33;;;11.40;;
23642;SDS011;11998;55.788;37.572;2023-04-06T00:54:00;13.40;;;11.20;;
23642;SDS011;11998;55.788;37.572;2023-04-06T00:55:01;13.33;;;11.17;;
23642;SDS011;11998;55.788;37.572;2023-04-06T00:56:02;13.63;;;11.43;;
23642;SDS011;11998;55.788;37.572;2023-04-06T00:57:03;14.57;;;11.57;;
23642;SDS011;11998;55.788;37.572;2023-04-06T00:58:03;12.60;;;10.80;;
23642;SDS011;11998;55.788;37.572;2023-04-06T00:59:04;13.80;;;11.90;;
23642;SDS011;11998;55.788;37.572;2023-04-06T01:00:04;15.00;;;12.13;;
23642;SDS011;11998;55.788;37.572;2023-04-06T01:01:05;14.50;;;11.70;;
23642;SDS011;11998;55.788;37.572;2023-04-06T01:02:06;12.73;;;10.90;;
23642;SDS011;11998;55.788;37.572;2023-04-06T01:03:07;13.57;;;10.90;;
23642;SDS011;11998;55.788;37.572;2023-04-06T01:04:08;14.90;;;12.27;;
23642;SDS011;11998;55.788;37.572;2023-04-06T01:05:08;13.70;;;12.13;;
23642;SDS011;11998;55.788;37.572;2023-04-06T01:06:09;12.00;;;10.80;;
23642;SDS011;11998;55.788;37.572;2023-04-06T01:07:09;12.10;;;10.77;;
23642;SDS011;11998;55.788;37.572;2023-04-06T01:08:10;14.23;;;11.80;;
23642;SDS011;11998;55.788;37.572;2023-04-06T01:09:10;14.93;;;11.90;;
23642;SDS011;11998;55.788;37.572;2023-04-06T01:10:22;14.38;;;11.90;;
23642;SDS011;11998;55.788;37.572;2023-04-06T01:11:22;14.43;;;11.00;;
23642;SDS011;11998;55.788;37.572;2023-04-06T01:12:23;15.60;;;11.90;;
23642;SDS011;11998;55.788;37.572;2023-04-06T01:13:24;15.05;;;11.43;;
23642;SDS011;11998;55.788;37.572;2023-04-06T01:14:25;13.63;;;11.97;;
23642;SDS011;11998;55.788;37.572;2023-04-06T01:15:25;16.13;;;13.03;;
23642;SDS011;11998;55.788;37.572;2023-04-06T01:16:26;14.40;;;12.27;;
23642;SDS011;11998;55.788;37.572;2023-04-06T01:17:26;16.97;;;13.00;;
23642;SDS011;11998;55.788;37.572;2023-04-06T01:18:28;15.75;;;12.02;;
23642;SDS011;11998;55.788;37.572;2023-04-06T01:19:29;14.90;;;11.93;;
23642;SDS011;11998;55.788;37.572;2023-04-06T01:20:30;14.10;;;12.60;;
23642;SDS011;11998;55.788;37.572;2023-04-06T01:21:30;13.83;;;12.00;;
23642;SDS011;11998;55.788;37.572;2023-04-06T01:22:31;15.03;;;12.53;;
23642;SDS011;11998;55.788;37.572;2023-04-06T01:23:31;15.87;;;12.50;;
23642;SDS011;11998;55.788;37.572;2023-04-06T01:24:32;14.27;;;12.20;;
23642;SDS011;11998;55.788;37.572;2023-04-06T01:25:33;13.77;;;11.95;;
23642;SDS011;11998;55.788;37.572;2023-04-06T01:26:34;14.47;;;12.17;;
23642;SDS011;11998;55.788;37.572;2023-04-06T01:27:34;16.83;;;13.10;;
23642;SDS011;11998;55.788;37.572;2023-04-06T01:28:34;19.03;;;13.00;;
23642;SDS011;11998;55.788;37.572;2023-04-06T01:29:35;14.97;;;11.63;;
23642;SDS011;11998;55.788;37.572;2023-04-06T01:30:35;18.07;;;13.97;;
23642;SDS011;11998;55.788;37.572;2023-04-06T01:31:36;15.63;;;13.47;;
23642;SDS011;11998;55.788;37.572;2023-04-06T01:32:36;15.60;;;12.20;;
23642;SDS011;11998;55.788;37.572;2023-04-06T01:33:36;15.43;;;12.00;;
23642;SDS011;11998;55.788;37.572;2023-04-06T01:34:37;14.37;;;12.10;;
23642;SDS011;11998;55.788;37.572;2023-04-06T01:35:37;15.20;;;12.67;;
23642;SDS011;11998;55.788;37.572;2023-04-06T01:36:38;15.20;;;12.10;;
23642;SDS011;11998;55.788;37.572;2023-04-06T01:37:38;15.40;;;12.23;;
23642;SDS011;11998;55.788;37.572;2023-04-06T01:38:38;16.20;;;12.67;;
23642;SDS011;11998;55.788;37.572;2023-04-06T01:39:39;16.23;;;12.47;;
23642;SDS011;11998;55.788;37.572;2023-04-06T01:40:40;12.83;;;11.20;;
23642;SDS011;11998;55.788;37.572;2023-04-06T01:41:40;14.63;;;11.70;;
23642;SDS011;11998;55.788;37.572;2023-04-06T01:42:41;12.33;;;11.00;;
23642;SDS011;11998;55.788;37.572;2023-04-06T01:43:42;14.15;;;11.73;;
23642;SDS011;11998;55.788;37.572;2023-04-06T01:44:43;15.67;;;12.90;;
23642;SDS011;11998;55.788;37.572;2023-04-06T01:45:43;15.70;;;11.70;;
23642;SDS011;11998;55.788;37.572;2023-04-06T01:46:44;16.03;;;12.50;;
23642;SDS011;11998;55.788;37.572;2023-04-06T01:47:45;13.02;;;11.38;;
23642;SDS011;11998;55.788;37.572;2023-04-06T01:48:46;16.93;;;12.13;;
23642;SDS011;11998;55.788;37.572;2023-04-06T01:49:46;14.33;;;10.63;;
23642;SDS011;11998;55.788;37.572;2023-04-06T01:50:49;12.13;;;10.68;;
23642;SDS011;11998;55.788;37.572;2023-04-06T01:51:49;13.17;;;11.30;;
23642;SDS011;11998;55.788;37.572;2023-04-06T01:52:49;16.63;;;11.83;;
23642;SDS011;11998;55.788;37.572;2023-04-06T01:53:50;13.97;;;12.30;;
23642;SDS011;11998;55.788;37.572;2023-04-06T01:54:50;14.37;;;11.53;;
23642;SDS011;11998;55.788;37.572;2023-04-06T01:55:51;15.30;;;11.50;;
23642;SDS011;11998;55.788;37.572;2023-04-06T01:56:51;13.43;;;11.30;;
23642;SDS011;11998;55.788;37.572;2023-04-06T01:57:52;13.03;;;11.60;;
23642;SDS011;11998;55.788;37.572;2023-04-06T01:58:53;14.60;;;11.50;;
23642;SDS011;11998;55.788;37.572;2023-04-06T01:59:53;13.03;;;10.93;;
23642;SDS011;11998;55.788;37.572;2023-04-06T02:00:53;13.63;;;11.00;;
23642;SDS011;11998;55.788;37.572;2023-04-06T02:01:54;13.93;;;12.00;;
23642;SDS011;11998;55.788;37.572;2023-04-06T02:02:54;14.50;;;11.27;;
23642;SDS011;11998;55.788;37.572;2023-04-06T02:03:55;12.67;;;9.97;;
23642;SDS011;11998;55.788;37.572;2023-04-06T02:04:55;14.57;;;10.93;;
23642;SDS011;11998;55.788;37.572;2023-04-06T02:05:56;19.23;;;11.60;;
23642;SDS011;11998;55.788;37.572;2023-04-06T02:06:56;14.97;;;11.33;;
23642;SDS011;11998;55.788;37.572;2023-04-06T02:07:56;16.23;;;11.47;;
23642;SDS011;11998;55.788;37.572;2023-04-06T02:08:57;14.90;;;12.43;;
23642;SDS011;11998;55.788;37.572;2023-04-06T02:09:57;14.93;;;12.60;;
23642;SDS011;11998;55.788;37.572;2023-04-06T02:10:58;13.67;;;10.77;;
23642;SDS011;11998;55.788;37.572;2023-04-06T02:11:58;16.57;;;12.43;;
23642;SDS011;11998;55.788;37.572;2023-04-06T02:12:58;14.77;;;11.53;;
23642;SDS011;11998;55.788;37.572;2023-04-06T02:13:59;15.27;;;11.57;;
23642;SDS011;11998;55.788;37.572;2023-04-06T02:15:00;15.02;;;11.70;;
23642;SDS011;11998;55.788;37.572;2023-04-06T02:16:01;14.00;;;12.27;;
23642;SDS011;11998;55.788;37.572;2023-04-06T02:17:02;17.63;;;11.80;;
23642;SDS011;11998;55.788;37.572;2023-04-06T02:18:03;13.23;;;11.23;;
23642;SDS011;11998;55.788;37.572;2023-04-06T02:19:03;14.80;;;11.07;;
23642;SDS011;11998;55.788;37.572;2023-04-06T02:20:03;13.13;;;11.67;;
23642;SDS011;11998;55.788;37.572;2023-04-06T02:21:04;14.90;;;11.63;;
23642;SDS011;11998;55.788;37.572;2023-04-06T02:22:04;14.70;;;11.50;;
23642;SDS011;11998;55.788;37.572;2023-04-06T02:23:05;17.07;;;11.77;;
23642;SDS011;11998;55.788;37.572;2023-04-06T02:24:05;15.53;;;11.27;;
23642;SDS011;11998;55.788;37.572;2023-04-06T02:25:06;14.93;;;11.97;;
23642;SDS011;11998;55.788;37.572;2023-04-06T02:26:07;15.68;;;11.75;;
23642;SDS011;11998;55.788;37.572;2023-04-06T02:27:08;20.20;;;11.17;;
23642;SDS011;11998;55.788;37.572;2023-04-06T02:28:08;13.83;;;11.67;;
23642;SDS011;11998;55.788;37.572;2023-04-06T02:29:09;14.70;;;12.03;;
23642;SDS011;11998;55.788;37.572;2023-04-06T02:30:10;14.33;;;11.97;;
23642;SDS011;11998;55.788;37.572;2023-04-06T02:31:10;13.20;;;11.73;;
23642;SDS011;11998;55.788;37.572;2023-04-06T02:32:12;16.13;;;12.20;;
23642;SDS011;11998;55.788;37.572;2023-04-06T02:33:12;16.93;;;11.83;;
23642;SDS011;11998;55.788;37.572;2023-04-06T02:34:12;12.87;;;11.40;;
23642;SDS011;11998;55.788;37.572;2023-04-06T02:35:17;15.80;;;12.88;;
23642;SDS011;11998;55.788;37.572;2023-04-06T02:36:18;14.33;;;11.43;;
23642;SDS011;11998;55.788;37.572;2023-04-06T02:37:18;12.87;;;11.47;;
23642;SDS011;11998;55.788;37.572;2023-04-06T02:38:18;15.50;;;11.87;;
23642;SDS011;11998;55.788;37.572;2023-04-06T02:39:19;15.03;;;12.67;;
23642;SDS011;11998;55.788;37.572;2023-04-06T02:40:20;14.83;;;11.63;;
23642;SDS011;11998;55.788;37.572;2023-04-06T02:41:20;14.87;;;11.47;;
23642;SDS011;11998;55.788;37.572;2023-04-06T02:42:20;14.03;;;11.30;;
23642;SDS011;11998;55.788;37.572;2023-04-06T02:43:21;14.07;;;11.90;;
23642;SDS011;11998;55.788;37.572;2023-04-06T02:44:21;14.30;;;10.77;;
23642;SDS011;11998;55.788;37.572;2023-04-06T02:45:22;16.63;;;11.50;;
23642;SDS011;11998;55.788;37.572;2023-04-06T02:46:22;14.17;;;11.43;;
23642;SDS011;11998;55.788;37.572;2023-04-06T02:47:22;14.63;;;11.27;;
23642;SDS011;11998;55.788;37.572;2023-04-06T02:48:23;14.43;;;11.40;;
23642;SDS011;11998;55.788;37.572;2023-04-06T02:49:23;13.33;;;10.57;;
23642;SDS011;11998;55.788;37.572;2023-04-06T02:50:24;12.50;;;11.20;;
23642;SDS011;11998;55.788;37.572;2023-04-06T02:51:24;14.10;;;11.53;;
23642;SDS011;11998;55.788;37.572;2023-04-06T02:52:25;13.70;;;12.18;;
23642;SDS011;11998;55.788;37.572;2023-04-06T02:53:26;15.40;;;11.13;;
23642;SDS011;11998;55.788;37.572;2023-04-06T02:54:27;17.45;;;11.48;;
23642;SDS011;11998;55.788;37.572;2023-04-06T02:55:28;13.57;;;10.97;;
23642;SDS011;11998;55.788;37.572;2023-04-06T02:56:28;14.97;;;11.47;;
23642;SDS011;11998;55.788;37.572;2023-04-06T02:57:28;13.07;;;10.20;;
23642;SDS011;11998;55.788;37.572;2023-04-06T02:58:29;14.47;;;11.17;;
23642;SDS011;11998;55.788;37.572;2023-04-06T02:59:29;14.03;;;11.17;;
23642;SDS011;11998;55.788;37.572;2023-04-06T03:00:30;15.07;;;11.00;;
23642;SDS011;11998;55.788;37.572;2023-04-06T03:01:30;13.50;;;10.77;;
23642;SDS011;11998;55.788;37.572;2023-04-06T03:02:31;14.43;;;12.00;;
23642;SDS011;11998;55.788;37.572;2023-04-06T03:03:31;15.33;;;11.60;;
23642;SDS011;11998;55.788;37.572;2023-04-06T03:04:31;14.30;;;11.33;;
23642;SDS011;11998;55.788;37.572;2023-04-06T03:05:32;13.73;;;11.77;;
23642;SDS011;11998;55.788;37.572;2023-04-06T03:06:33;13.27;;;10.97;;
23642;SDS011;11998;55.788;37.572;2023-04-06T03:07:33;13.73;;;10.63;;
23642;SDS011;11998;55.788;37.572;2023-04-06T03:08:33;14.90;;;11.83;;
23642;SDS011;11998;55.788;37.572;2023-04-06T03:09:36;14.67;;;10.80;;
23642;SDS011;11998;55.788;37.572;2023-04-06T03:10:37;15.65;;;12.65;;
23642;SDS011;11998;55.788;37.572;2023-04-06T03:11:37;14.00;;;11.97;;
23642;SDS011;11998;55.788;37.572;2023-04-06T03:12:37;14.23;;;11.43;;
23642;SDS011;11998;55.788;37.572;2023-04-06T03:13:38;13.17;;;11.50;;
23642;SDS011;11998;55.788;37.572;2023-04-06T03:14:38;15.23;;;11.40;;
23642;SDS011;11998;55.788;37.572;2023-04-06T03:15:39;13.50;;;10.93;;
23642;SDS011;11998;55.788;37.572;2023-04-06T03:16:41;11.90;;;10.40;;
23642;SDS011;11998;55.788;37.572;2023-04-06T03:17:42;16.73;;;11.30;;
23642;SDS011;11998;55.788;37.572;2023-04-06T03:18:42;15.30;;;11.40;;
23642;SDS011;11998;55.788;37.572;2023-04-06T03:19:44;13.32;;;11.52;;
23642;SDS011;11998;55.788;37.572;2023-04-06T03:20:45;13.83;;;10.93;;
23642;SDS011;11998;55.788;37.572;2023-04-06T03:21:47;12.80;;;11.40;;
23642;SDS011;11998;55.788;37.572;2023-04-06T03:22:47;14.63;;;11.00;;
23642;SDS011;11998;55.788;37.572;2023-04-06T03:23:47;14.60;;;11.57;;
23642;SDS011;11998;55.788;37.572;2023-04-06T03:24:51;15.10;;;12.07;;
23642;SDS011;11998;55.788;37.572;2023-04-06T03:25:51;15.53;;;12.60;;
23642;SDS011;11998;55.788;37.572;2023-04-06T03:26:53;16.20;;;12.55;;
23642;SDS011;11998;55.788;37.572;2023-04-06T03:27:53;15.33;;;12.13;;
23642;SDS011;11998;55.788;37.572;2023-04-06T03:28:54;14.87;;;12.53;;
23642;SDS011;11998;55.788;37.572;2023-04-06T03:29:54;15.30;;;13.57;;
23642;SDS011;11998;55.788;37.572;2023-04-06T03:30:55;14.03;;;12.30;;
23642;SDS011;11998;55.788;37.572;2023-04-06T03:31:55;15.73;;;12.77;;
23642;SDS011;11998;55.788;37.572;2023-04-06T03:32:56;16.70;;;13.67;;
23642;SDS011;11998;55.788;37.572;2023-04-06T03:33:59;12.70;;;11.32;;
23642;SDS011;11998;55.788;37.572;2023-04-06T03:35:00;14.27;;;11.93;;
23642;SDS011;11998;55.788;37.572;2023-04-06T03:36:00;13.37;;;11.30;;
23642;SDS011;11998;55.788;37.572;2023-04-06T03:37:01;14.07;;;11.63;;
23642;SDS011;11998;55.788;37.572;2023-04-06T03:38:01;12.20;;;10.90;;
23642;SDS011;11998;55.788;37.572;2023-04-06T03:39:01;16.03;;;13.30;;
23642;SDS011;11998;55.788;37.572;2023-04-06T03:40:02;12.80;;;11.47;;
23642;SDS011;11998;55.788;37.572;2023-04-06T03:41:03;12.80;;;11.03;;
23642;SDS011;11998;55.788;37.572;2023-04-06T03:42:04;12.37;;;10.37;;
23642;SDS011;11998;55.788;37.572;2023-04-06T03:43:04;11.33;;;10.10;;
23642;SDS011;11998;55.788;37.572;2023-04-06T03:44:05;13.97;;;10.17;;
23642;SDS011;11998;55.788;37.572;2023-04-06T03:45:05;11.97;;;8.67;;
23642;SDS011;11998;55.788;37.572;2023-04-06T03:46:06;11.73;;;9.50;;
23642;SDS011;11998;55.788;37.572;2023-04-06T03:47:06;10.17;;;8.30;;
23642;SDS011;11998;55.788;37.572;2023-04-06T03:48:07;9.90;;;8.50;;
23642;SDS011;11998;55.788;37.572;2023-04-06T03:49:07;9.27;;;8.20;;
23642;SDS011;11998;55.788;37.572;2023-04-06T03:50:08;12.63;;;8.60;;
23642;SDS011;11998;55.788;37.572;2023-04-06T03:51:08;9.73;;;8.67;;
23642;SDS011;11998;55.788;37.572;2023-04-06T03:52:09;10.67;;;9.53;;
23642;SDS011;11998;55.788;37.572;2023-04-06T03:53:09;10.50;;;9.40;;
23642;SDS011;11998;55.788;37.572;2023-04-06T03:54:10;13.60;;;9.50;;
23642;SDS011;11998;55.788;37.572;2023-04-06T03:55:10;10.27;;;8.20;;
23642;SDS011;11998;55.788;37.572;2023-04-06T03:56:11;12.27;;;9.37;;
23642;SDS011;11998;55.788;37.572;2023-04-06T03:57:11;10.73;;;9.00;;
23642;SDS011;11998;55.788;37.572;2023-04-06T03:58:11;11.83;;;9.00;;
23642;SDS011;11998;55.788;37.572;2023-04-06T03:59:12;11.80;;;9.40;;
23642;SDS011;11998;55.788;37.572;2023-04-06T04:00:12;11.67;;;9.30;;
23642;SDS011;11998;55.788;37.572;2023-04-06T04:01:13;9.93;;;8.77;;
23642;SDS011;11998;55.788;37.572;2023-04-06T04:02:13;10.60;;;9.17;;
23642;SDS011;11998;55.788;37.572;2023-04-06T04:03:14;11.45;;;9.00;;
23642;SDS011;11998;55.788;37.572;2023-04-06T04:04:15;11.60;;;9.10;;
23642;SDS011;11998;55.788;37.572;2023-04-06T04:05:15;9.90;;;8.90;;
23642;SDS011;11998;55.788;37.572;2023-04-06T04:06:16;9.73;;;8.73;;
23642;SDS011;11998;55.788;37.572;2023-04-06T04:07:16;11.10;;;9.17;;
23642;SDS011;11998;55.788;37.572;2023-04-06T04:08:17;12.43;;;9.90;;
23642;SDS011;11998;55.788;37.572;2023-04-06T04:09:17;11.17;;;9.10;;
23642;SDS011;11998;55.788;37.572;2023-04-06T04:10:17;11.93;;;8.97;;
23642;SDS011;11998;55.788;37.572;2023-04-06T04:11:18;10.73;;;8.73;;
23642;SDS011;11998;55.788;37.572;2023-04-06T04:12:18;15.00;;;9.63;;
23642;SDS011;11998;55.788;37.572;2023-04-06T04:13:19;12.33;;;9.40;;
23642;SDS011;11998;55.788;37.572;2023-04-06T04:14:19;12.77;;;8.50;;
23642;SDS011;11998;55.788;37.572;2023-04-06T04:15:20;10.93;;;8.23;;
23642;SDS011;11998;55.788;37.572;2023-04-06T04:16:20;13.03;;;8.83;;
23642;SDS011;11998;55.788;37.572;2023-04-06T04:17:21;10.70;;;8.33;;
23642;SDS011;11998;55.788;37.572;2023-04-06T04:18:21;11.83;;;8.97;;
23642;SDS011;11998;55.788;37.572;2023-04-06T04:19:22;12.40;;;9.17;;
23642;SDS011;11998;55.788;37.572;2023-04-06T04:20:22;10.70;;;9.03;;
23642;SDS011;11998;55.788;37.572;2023-04-06T04:21:22;9.97;;;8.70;;
23642;SDS011;11998;55.788;37.572;2023-04-06T04:22:23;15.87;;;9.17;;
23642;SDS011;11998;55.788;37.572;2023-04-06T04:23:23;13.13;;;9.13;;
23642;SDS011;11998;55.788;37.572;2023-04-06T04:24:24;13.03;;;8.53;;
23642;SDS011;11998;55.788;37.572;2023-04-06T04:25:24;10.63;;;8.70;;
23642;SDS011;11998;55.788;37.572;2023-04-06T04:26:24;11.80;;;8.90;;
23642;SDS011;11998;55.788;37.572;2023-04-06T04:27:25;12.40;;;8.00;;
23642;SDS011;11998;55.788;37.572;2023-04-06T04:28:25;13.07;;;9.20;;
23642;SDS011;11998;55.788;37.572;2023-04-06T04:29:26;10.30;;;8.13;;
23642;SDS011;11998;55.788;37.572;2023-04-06T04:30:26;8.67;;;7.20;;
23642;SDS011;11998;55.788;37.572;2023-04-06T04:31:27;9.20;;;8.10;;
23642;SDS011;11998;55.788;37.572;2023-04-06T04:32:27;10.27;;;7.30;;
23642;SDS011;11998;55.788;37.572;2023-04-06T04:33:28;11.60;;;7.67;;
23642;SDS011;11998;55.788;37.572;2023-04-06T04:34:28;12.57;;;8.00;;
23642;SDS011;11998;55.788;37.572;2023-04-06T04:35:29;11.37;;;8.63;;
23642;SDS011;11998;55.788;37.572;2023-04-06T04:36:29;12.33;;;8.23;;
23642;SDS011;11998;55.788;37.572;2023-04-06T04:37:29;9.77;;;8.17;;
23642;SDS011;11998;55.788;37.572;2023-04-06T04:38:30;11.37;;;8.10;;
23642;SDS011;11998;55.788;37.572;2023-04-06T04:39:31;9.70;;;7.93;;
23642;SDS011;11998;55.788;37.572;2023-04-06T04:40:31;8.43;;;7.20;;
23642;SDS011;11998;55.788;37.572;2023-04-06T04:41:32;9.03;;;7.70;;
23642;SDS011;11998;55.788;37.572;2023-04-06T04:42:33;11.73;;;7.60;;
23642;SDS011;11998;55.788;37.572;2023-04-06T04:43:34;10.48;;;7.30;;
23642;SDS011;11998;55.788;37.572;2023-04-06T04:44:34;9.70;;;7.37;;
23642;SDS011;11998;55.788;37.572;2023-04-06T04:45:35;12.53;;;7.60;;
23642;SDS011;11998;55.788;37.572;2023-04-06T04:46:35;9.67;;;6.73;;
23642;SDS011;11998;55.788;37.572;2023-04-06T04:47:36;10.50;;;7.20;;
23642;SDS011;11998;55.788;37.572;2023-04-06T04:48:36;15.60;;;7.50;;
23642;SDS011;11998;55.788;37.572;2023-04-06T04:49:37;9.43;;;7.57;;
23642;SDS011;11998;55.788;37.572;2023-04-06T04:50:37;9.43;;;6.97;;
23642;SDS011;11998;55.788;37.572;2023-04-06T04:51:38;8.10;;;7.20;;
23642;SDS011;11998;55.788;37.572;2023-04-06T04:52:38;10.83;;;7.63;;
23642;SDS011;11998;55.788;37.572;2023-04-06T04:53:38;9.73;;;6.63;;
23642;SDS011;11998;55.788;37.572;2023-04-06T04:54:39;9.37;;;6.70;;
23642;SDS011;11998;55.788;37.572;2023-04-06T04:55:41;8.80;;;6.60;;
23642;SDS011;11998;55.788;37.572;2023-04-06T04:56:41;12.77;;;6.70;;
23642;SDS011;11998;55.788;37.572;2023-04-06T04:57:41;7.67;;;6.47;;
23642;SDS011;11998;55.788;37.572;2023-04-06T04:58:42;6.67;;;5.90;;
23642;SDS011;11998;55.788;37.572;2023-04-06T04:59:42;7.80;;;5.90;;
23642;SDS011;11998;55.788;37.572;2023-04-06T05:00:43;10.53;;;5.87;;
23642;SDS011;11998;55.788;37.572;2023-04-06T05:01:43;5.97;;;5.37;;
23642;SDS011;11998;55.788;37.572;2023-04-06T05:02:44;6.97;;;6.10;;
23642;SDS011;11998;55.788;37.572;2023-04-06T05:03:44;5.23;;;4.73;;
23642;SDS011;11998;55.788;37.572;2023-04-06T05:04:44;7.80;;;5.07;;
23642;SDS011;11998;55.788;37.572;2023-04-06T05:05:45;5.60;;;4.50;;
23642;SDS011;11998;55.788;37.572;2023-04-06T05:06:45;6.20;;;4.67;;
23642;SDS011;11998;55.788;37.572;2023-04-06T05:07:46;6.13;;;5.07;;
23642;SDS011;11998;55.788;37.572;2023-04-06T05:08:46;8.07;;;4.63;;
23642;SDS011;11998;55.788;37.572;2023-04-06T05:09:46;5.87;;;4.23;;
23642;SDS011;11998;55.788;37.572;2023-04-06T05:10:47;4.30;;;3.90;;
23642;SDS011;11998;55.788;37.572;2023-04-06T05:11:48;7.13;;;4.83;;
23642;SDS011;11998;55.788;37.572;2023-04-06T05:12:48;5.00;;;4.50;;
23642;SDS011;11998;55.788;37.572;2023-04-06T05:13:49;7.37;;;4.73;;
23642;SDS011;11998;55.788;37.572;2023-04-06T05:14:49;6.40;;;4.87;;
23642;SDS011;11998;55.788;37.572;2023-04-06T05:15:49;6.37;;;4.80;;
23642;SDS011;11998;55.788;37.572;2023-04-06T05:16:50;10.20;;;5.20;;
23642;SDS011;11998;55.788;37.572;2023-04-06T05:17:50;8.37;;;4.73;;
23642;SDS011;11998;55.788;37.572;2023-04-06T05:18:51;6.83;;;4.97;;
23642;SDS011;11998;55.788;37.572;2023-04-06T05:19:51;4.90;;;4.40;;
23642;SDS011;11998;55.788;37.572;2023-04-06T05:20:52;5.83;;;5.23;;
23642;SDS011;11998;55.788;37.572;2023-04-06T05:21:52;7.50;;;4.60;;
23642;SDS011;11998;55.788;37.572;2023-04-06T05:22:53;8.10;;;4.33;;
23642;SDS011;11998;55.788;37.572;2023-04-06T05:23:53;5.72;;;4.03;;
23642;SDS011;11998;55.788;37.572;2023-04-06T05:24:54;7.40;;;4.88;;
23642;SDS011;11998;55.788;37.572;2023-04-06T05:25:55;5.75;;;3.97;;
23642;SDS011;11998;55.788;37.572;2023-04-06T05:26:55;6.47;;;4.68;;
23642;SDS011;11998;55.788;37.572;2023-04-06T05:27:55;5.10;;;4.25;;
23642;SDS011;11998;55.788;37.572;2023-04-06T05:28:56;7.85;;;4.22;;
23642;SDS011;11998;55.788;37.572;2023-04-06T05:29:56;6.63;;;4.43;;
23642;SDS011;11998;55.788;37.572;2023-04-06T05:30:57;6.00;;;4.53;;
23642;SDS011;11998;55.788;37.572;2023-04-06T05:31:57;6.22;;;4.35;;
23642;SDS011;11998;55.788;37.572;2023-04-06T05:32:58;10.00;;;4.10;;
23642;SDS011;11998;55.788;37.572;2023-04-06T05:33:58;5.03;;;4.50;;
23642;SDS011;11998;55.788;37.572;2023-04-06T05:34:59;4.97;;;4.38;;
23642;SDS011;11998;55.788;37.572;2023-04-06T05:36:00;5.93;;;4.15;;
23642;SDS011;11998;55.788;37.572;2023-04-06T05:37:01;7.35;;;4.57;;
23642;SDS011;11998;55.788;37.572;2023-04-06T05:38:01;8.10;;;4.68;;
23642;SDS011;11998;55.788;37.572;2023-04-06T05:39:01;8.82;;;4.22;;
23642;SDS011;11998;55.788;37.572;2023-04-06T05:40:02;9.18;;;4.40;;
23642;SDS011;11998;55.788;37.572;2023-04-06T05:41:02;5.25;;;4.32;;
23642;SDS011;11998;55.788;37.572;2023-04-06T05:42:04;6.75;;;4.80;;
23642;SDS011;11998;55.788;37.572;2023-04-06T05:43:05;6.90;;;4.00;;
23642;SDS011;11998;55.788;37.572;2023-04-06T05:44:06;5.95;;;4.47;;
23642;SDS011;11998;55.788;37.572;2023-04-06T05:45:06;6.60;;;4.53;;
23642;SDS011;11998;55.788;37.572;2023-04-06T05:46:07;4.53;;;4.13;;
23642;SDS011;11998;55.788;37.572;2023-04-06T05:47:07;6.70;;;4.25;;
23642;SDS011;11998;55.788;37.572;2023-04-06T05:48:08;5.10;;;4.05;;
23642;SDS011;11998;55.788;37.572;2023-04-06T05:49:08;8.07;;;4.80;;
23642;SDS011;11998;55.788;37.572;2023-04-06T05:50:08;7.53;;;4.25;;
23642;SDS011;11998;55.788;37.572;2023-04-06T05:51:09;8.45;;;4.15;;
23642;SDS011;11998;55.788;37.572;2023-04-06T05:52:10;5.10;;;3.85;;